Delray Beach, FL

2:43 AM EDT on August 21, 2014 (GMT -0400)
Pompano Beach | Change Station
CLOSE
Current Station
Airport
Location: Pompano Beach,
Elevation: 20 ft
Nearby Weather Stations

Elev 20 ft 26.25 °N, 80.11 °W | Updated 50 minutes ago

Partly Cloudy
Partly Cloudy
85 °F
Feels Like 94 °F
N
5
Wind Variable Wind from SE
Gusts 3 mph

Today
High -- | Low -- °F
--% Chance of Precip.
Yesterday
High -- | Low -- °F
Precip. -- in
6:55 AM 7:51 PM
Waning Crescent, 16% visible
Pressure 30.09 in
Visibility 10.0 miles
Clouds
Heat Index 94 °F
Dew Point 76 °F
Humidity 74%
Rainfall 0.00 in
Snow Depth Not available.
UV Not available.
Pollen 4.90 out of 12
Air Quality Not available.
Flu Activity Not available.
METAR KPMP 210553Z AUTO 14004KT 10SM 29/24 A3009 RMK AO2 SLP190 T02940244 10306 20294 58001 $

More Conditions Fewer Conditions

Pressure 30.09 in
Visibility 10.0 miles
Clouds
Heat Index 94 °F
Dew Point 76 °F
Humidity 74%
Rainfall 0.00 in
Snow Depth Not available.
UV Not available.
Pollen 4.90 out of 12
Air Quality Not available.
Flu Activity Not available.
METAR KPMP 210553Z AUTO 14004KT 10SM 29/24 A3009 RMK AO2 SLP190 T02940244 10306 20294 58001 $

More Conditions Fewer Conditions

10-Day Weather Forecast

Almanac

Astronomy

Aug. 21, 2014 Rise Set
Actual Time 6:55 AM EDT 7:51 PM EDT
Civil Twilight 6:31 AM EDT 8:15 PM EDT
Nautical Twilight 6:03 AM EDT 8:43 PM EDT
Astronomical Twilight 5:34 AM EDT 9:12 PM EDT
Moon 3:33 AM EDT 5:10 PM EDT
Length of Visible Light 13h 43m
Length of Day
12h 55m
Tomorrow will be 1m 25s shorter.
Waning Crescent, 16% of the Moon is Illuminated
Today
Waning Crescent
Aug 25
New
Sep 2
First Quarter
Sep 8
Full
Sep 15
Last Quarter

Today's Extremes

State Highs State Lows

Community

WunderPhotos

Upload Photos

1,745,858 photos uploaded!

Nearby

Air Quality

  Air Quality AQ Index Pollutant
Thursday Good
OZONE
Thursday Good
PM2.5

Snow Depth

Station Depth Elevation
No new snow has been reported.

Earthquake Activity

City Distance Mag. Time & Date
No recent earthquake activity has been reported nearby.
Minimum magnitude displayed is 2.5.

Coastal Water Temperatures

Place Temperature
Lake Worth, FL 87.1 °F
Virginia Key, FL 89.1 °F

Nearby Weather Stations